createdAt,value
2023-04-13T00:00:43.375Z,7.08
2023-04-13T00:03:12.783Z,7.14
2023-04-13T00:05:40.063Z,6.98
2023-04-13T00:08:07.666Z,6.95
2023-04-13T00:10:41.653Z,7.37
2023-04-13T00:13:10.283Z,7.19
2023-04-13T00:15:41.044Z,7.31
2023-04-13T00:18:10.888Z,7.19
2023-04-13T00:20:38.797Z,7.08
2023-04-13T00:23:06.177Z,7.00
2023-04-13T00:25:32.897Z,7.15
2023-04-13T00:28:02.959Z,7.34
2023-04-13T00:30:30.390Z,7.17
2023-04-13T00:32:57.259Z,7.11
2023-04-13T00:35:25.259Z,7.06
2023-04-13T00:37:53.171Z,7.08
2023-04-13T00:40:20.262Z,7.24
2023-04-13T00:42:48.563Z,7.53
2023-04-13T00:45:16.618Z,7.55
2023-04-13T00:47:48.469Z,7.16
2023-04-13T00:50:19.452Z,7.08
2023-04-13T00:52:47.548Z,7.10
2023-04-13T00:55:15.134Z,7.39
2023-04-13T00:57:42.121Z,6.91
2023-04-13T01:00:09.926Z,7.12
2023-04-13T01:02:42.725Z,7.06
2023-04-13T01:05:12.858Z,7.23
2023-04-13T01:08:00.760Z,6.98
2023-04-13T01:10:33.802Z,7.46
2023-04-13T01:13:06.262Z,7.50
2023-04-13T01:15:40.104Z,7.24
2023-04-13T01:18:10.212Z,7.30
2023-04-13T01:20:41.314Z,7.46
2023-04-13T01:23:10.181Z,7.34
2023-04-13T01:25:57.954Z,7.56
2023-04-13T01:28:25.543Z,7.20
2023-04-13T01:30:53.958Z,7.50
2023-04-13T01:33:21.972Z,7.47
2023-04-13T01:35:50.367Z,7.17
2023-04-13T01:38:24.673Z,7.30
2023-04-13T01:40:51.980Z,7.02
2023-04-13T01:43:22.484Z,7.32
2023-04-13T01:46:06.207Z,7.48
2023-04-13T01:49:00.731Z,7.53
2023-04-13T01:51:32.328Z,7.51
2023-04-13T01:54:04.899Z,7.63
2023-04-13T01:56:31.848Z,7.25
2023-04-13T01:59:00.203Z,7.15
2023-04-13T02:01:27.166Z,7.21
2023-04-13T02:03:54.366Z,7.64
2023-04-13T02:06:21.197Z,7.34
2023-04-13T02:08:50.060Z,7.35
2023-04-13T02:11:17.881Z,7.03
2023-04-13T02:13:44.762Z,7.37
2023-04-13T02:16:11.617Z,7.09
2023-04-13T02:18:38.843Z,7.38
2023-04-13T02:21:09.707Z,7.62
2023-04-13T02:23:37.380Z,7.31
2023-04-13T02:26:04.715Z,7.57
2023-04-13T02:28:31.428Z,7.37
2023-04-13T02:31:00.020Z,7.80
2023-04-13T02:33:31.753Z,7.65
2023-04-13T02:36:04.237Z,7.38
2023-04-13T02:38:32.166Z,7.76
2023-04-13T02:41:00.699Z,7.56
2023-04-13T02:43:27.849Z,7.65
2023-04-13T02:45:54.939Z,7.29
2023-04-13T02:48:21.992Z,7.26
2023-04-13T02:50:48.724Z,7.55
2023-04-13T02:53:17.268Z,7.64
2023-04-13T02:55:43.956Z,7.32
2023-04-13T02:58:12.314Z,7.40
2023-04-13T03:00:39.275Z,7.34
2023-04-13T03:03:06.927Z,7.08
2023-04-13T03:05:33.929Z,7.56
2023-04-13T03:08:00.870Z,7.50
2023-04-13T03:10:27.577Z,7.36
2023-04-13T03:12:54.293Z,7.25
2023-04-13T03:15:21.060Z,7.25
2023-04-13T03:17:47.821Z,7.64
2023-04-13T03:20:16.840Z,7.71
2023-04-13T03:22:45.225Z,7.36
2023-04-13T03:25:12.768Z,7.25
2023-04-13T03:27:39.797Z,7.59
2023-04-13T03:30:07.823Z,7.33
2023-04-13T03:32:34.802Z,7.04
2023-04-13T03:35:01.608Z,7.50
2023-04-13T03:37:30.517Z,7.30
2023-04-13T03:39:58.630Z,7.32
2023-04-13T03:42:25.352Z,7.42
2023-04-13T03:44:52.176Z,7.27
2023-04-13T03:47:19.029Z,7.47
2023-04-13T03:49:45.765Z,7.33
2023-04-13T03:52:12.499Z,7.30
2023-04-13T03:54:40.374Z,7.02
2023-04-13T03:57:07.376Z,7.38
2023-04-13T03:59:34.252Z,7.21
2023-04-13T04:02:03.041Z,7.31
2023-04-13T04:04:29.938Z,7.20
2023-04-13T04:06:58.224Z,7.11
2023-04-13T04:09:25.713Z,7.04
2023-04-13T04:11:52.487Z,7.02
2023-04-13T04:14:20.535Z,7.22
2023-04-13T04:16:47.396Z,7.22
2023-04-13T04:19:14.300Z,7.26
2023-04-13T04:21:47.194Z,7.29
2023-04-13T04:24:23.667Z,7.46
2023-04-13T04:26:50.705Z,7.11
2023-04-13T04:29:22.068Z,7.55
2023-04-13T04:31:53.755Z,7.56
2023-04-13T04:34:20.832Z,7.07
2023-04-13T04:36:52.018Z,7.15
2023-04-13T04:39:26.737Z,7.46
2023-04-13T04:41:55.274Z,7.17
2023-04-13T04:44:25.529Z,7.37
2023-04-13T04:46:53.045Z,7.15
2023-04-13T04:49:21.905Z,7.26
2023-04-13T04:51:49.667Z,7.20
2023-04-13T04:54:17.337Z,7.31
2023-04-13T04:56:45.763Z,7.46
2023-04-13T04:59:13.087Z,7.33
2023-04-13T05:01:40.403Z,7.53
2023-04-13T05:04:07.397Z,7.13
2023-04-13T05:06:34.436Z,7.45
2023-04-13T05:09:02.255Z,7.62
2023-04-13T05:11:29.775Z,7.39
2023-04-13T05:13:57.033Z,7.17
2023-04-13T05:16:23.985Z,7.46
2023-04-13T05:18:51.435Z,7.25
2023-04-13T05:21:18.857Z,7.40
2023-04-13T05:23:45.532Z,7.37
2023-04-13T05:26:12.960Z,7.25
2023-04-13T05:28:39.860Z,7.33
2023-04-13T05:31:09.112Z,7.18
2023-04-13T05:33:36.129Z,7.03
2023-04-13T05:36:04.807Z,7.41
2023-04-13T05:38:31.910Z,7.36
2023-04-13T05:40:58.876Z,6.99
2023-04-13T05:43:26.864Z,7.47
2023-04-13T05:45:53.710Z,7.29
2023-04-13T05:48:20.378Z,7.18
2023-04-13T05:50:47.704Z,7.29
2023-04-13T05:53:14.360Z,7.07
2023-04-13T05:55:44.182Z,7.49
2023-04-13T05:58:11.857Z,7.48
2023-04-13T06:00:38.986Z,7.35
2023-04-13T06:03:07.457Z,7.39
2023-04-13T06:05:36.754Z,7.43
2023-04-13T06:08:03.779Z,7.45
2023-04-13T06:10:30.808Z,7.54
2023-04-13T06:12:57.654Z,7.49
2023-04-13T06:15:24.869Z,7.72
2023-04-13T06:17:53.421Z,7.45
2023-04-13T06:20:21.617Z,7.59
2023-04-13T06:22:48.785Z,7.63
2023-04-13T06:25:16.549Z,7.46
2023-04-13T06:27:44.284Z,7.27
2023-04-13T06:30:12.309Z,7.59
2023-04-13T06:32:39.331Z,7.59
2023-04-13T06:35:06.560Z,7.23
2023-04-13T06:37:36.447Z,7.21
2023-04-13T06:40:12.727Z,7.52
2023-04-13T06:42:41.446Z,7.47
2023-04-13T06:45:12.227Z,7.46
2023-04-13T06:47:41.302Z,7.35
2023-04-13T06:50:09.534Z,7.38
2023-04-13T06:52:37.026Z,7.25
2023-04-13T06:55:04.802Z,7.77
2023-04-13T06:57:31.523Z,7.68
2023-04-13T06:59:58.547Z,7.77
2023-04-13T07:02:26.769Z,7.64
2023-04-13T07:04:53.611Z,7.48
2023-04-13T07:07:21.123Z,7.82
2023-04-13T07:09:47.801Z,7.76
2023-04-13T07:12:14.511Z,7.78
2023-04-13T07:14:41.705Z,7.89
2023-04-13T07:17:09.009Z,7.86
2023-04-13T07:19:36.860Z,7.89
2023-04-13T07:22:04.946Z,7.51
2023-04-13T07:24:34.227Z,8.05
2023-04-13T07:27:01.472Z,7.86
2023-04-13T07:29:28.480Z,7.83
2023-04-13T07:32:06.247Z,7.89
2023-04-13T07:34:32.907Z,7.56
2023-04-13T07:36:59.552Z,7.80
2023-04-13T07:39:26.504Z,7.98
2023-04-13T07:41:53.173Z,7.58
2023-04-13T07:44:19.889Z,7.67
2023-04-13T07:46:46.775Z,7.28
2023-04-13T07:49:13.540Z,7.54
2023-04-13T07:51:40.188Z,8.02
2023-04-13T07:54:06.888Z,7.66
2023-04-13T07:56:36.278Z,7.88
2023-04-13T07:59:03.747Z,7.66
2023-04-13T08:01:31.147Z,7.49
2023-04-13T08:03:58.031Z,7.92
2023-04-13T08:06:25.069Z,7.84
2023-04-13T08:08:53.360Z,7.72
2023-04-13T08:11:20.204Z,7.88
2023-04-13T08:13:46.950Z,7.90
2023-04-13T08:16:15.487Z,7.72
2023-04-13T08:18:42.551Z,7.73
2023-04-13T08:21:13.191Z,7.87
2023-04-13T08:23:41.830Z,7.89
2023-04-13T08:26:16.788Z,8.03
2023-04-13T08:28:43.548Z,8.00
2023-04-13T08:31:10.383Z,7.65
2023-04-13T08:33:37.411Z,7.68
2023-04-13T08:36:04.773Z,7.80
2023-04-13T08:38:34.161Z,7.48
2023-04-13T08:41:03.776Z,7.90
2023-04-13T08:43:34.238Z,7.89
2023-04-13T08:46:01.504Z,7.55
2023-04-13T08:48:32.116Z,7.85
2023-04-13T08:51:06.092Z,7.60
2023-04-13T08:53:32.930Z,7.87
2023-04-13T08:56:02.172Z,7.84
2023-04-13T08:58:34.030Z,8.31
2023-04-13T09:01:00.971Z,7.73
2023-04-13T09:03:34.175Z,8.05
2023-04-13T09:06:10.935Z,7.84
2023-04-13T09:08:38.433Z,7.72
2023-04-13T09:11:05.542Z,7.92
2023-04-13T09:13:32.231Z,7.90
2023-04-13T09:15:58.954Z,7.85
2023-04-13T09:18:25.679Z,7.88
2023-04-13T09:21:00.058Z,8.03
2023-04-13T09:23:26.800Z,8.08
2023-04-13T09:26:11.781Z,7.66
2023-04-13T09:28:48.685Z,7.87
2023-04-13T09:31:16.472Z,8.17
2023-04-13T09:33:51.333Z,8.04
2023-04-13T09:36:20.735Z,7.94
2023-04-13T09:38:56.133Z,8.04
2023-04-13T09:41:32.820Z,8.47
2023-04-13T09:44:01.209Z,8.40
2023-04-13T09:46:28.175Z,8.20
2023-04-13T09:49:02.821Z,8.55
2023-04-13T09:51:40.022Z,8.48
2023-04-13T09:54:07.390Z,8.58
2023-04-13T09:56:47.913Z,8.33
2023-04-13T09:59:15.088Z,8.53
2023-04-13T10:01:41.983Z,8.51
2023-04-13T10:04:09.082Z,8.40
2023-04-13T10:06:40.385Z,8.60
2023-04-13T10:09:08.085Z,8.34
2023-04-13T10:11:39.862Z,8.33
2023-04-13T10:14:12.218Z,8.43
2023-04-13T10:17:05.891Z,8.71
2023-04-13T10:19:35.871Z,8.83
2023-04-13T10:22:08.899Z,8.78
2023-04-13T10:24:37.013Z,8.47
2023-04-13T10:27:16.538Z,9.04
2023-04-13T10:29:43.420Z,8.84
2023-04-13T10:32:28.660Z,9.04
2023-04-13T10:34:56.076Z,8.50
2023-04-13T10:37:31.665Z,8.88
2023-04-13T10:40:07.071Z,8.50
2023-04-13T10:45:28.654Z,8.49
2023-04-13T10:47:56.471Z,8.57
2023-04-13T10:50:24.811Z,8.87
2023-04-13T10:53:00.977Z,8.74
2023-04-13T10:55:28.082Z,8.31
2023-04-13T10:57:56.558Z,8.39
2023-04-13T11:00:34.796Z,8.56
2023-04-13T11:03:11.545Z,8.70
2023-04-13T11:05:38.672Z,8.54
2023-04-13T11:08:05.995Z,8.88
2023-04-13T11:10:32.770Z,8.91
2023-04-13T11:12:59.589Z,8.62
2023-04-13T11:15:30.656Z,8.61
2023-04-13T11:17:59.724Z,8.78
2023-04-13T11:20:32.561Z,9.26
2023-04-13T11:23:00.180Z,9.21
2023-04-13T11:25:28.109Z,9.16
2023-04-13T11:27:59.576Z,9.34
2023-04-13T11:30:27.205Z,8.91
2023-04-13T11:32:55.198Z,9.17
2023-04-13T11:35:23.596Z,9.39
2023-04-13T11:37:53.097Z,9.49
2023-04-13T11:40:27.607Z,9.41
2023-04-13T11:42:58.888Z,9.16
2023-04-13T11:45:28.845Z,9.47
2023-04-13T11:47:57.212Z,9.53
2023-04-13T11:50:25.964Z,9.34
2023-04-13T11:52:57.434Z,9.91
2023-04-13T11:55:25.310Z,9.40
2023-04-13T11:57:54.130Z,9.25
2023-04-13T12:00:27.246Z,9.63
2023-04-13T12:05:30.034Z,9.53
2023-04-13T12:07:58.919Z,9.77
2023-04-13T12:10:38.356Z,9.56
2023-04-13T12:16:04.399Z,9.64
2023-04-13T12:18:46.991Z,9.62
2023-04-13T12:21:19.978Z,9.71
2023-04-13T12:23:59.488Z,10.04
2023-04-13T12:29:08.623Z,10.16
2023-04-13T12:31:39.986Z,10.08
2023-04-13T12:34:08.127Z,10.05
2023-04-13T12:36:36.724Z,9.74
2023-04-13T12:39:04.774Z,9.92
2023-04-13T12:41:32.435Z,10.08
2023-04-13T12:43:59.157Z,9.47
2023-04-13T12:46:26.729Z,9.74
2023-04-13T12:48:54.148Z,9.93
2023-04-13T12:51:21.334Z,10.23
2023-04-13T12:53:48.518Z,10.22
2023-04-13T12:56:16.066Z,9.52
2023-04-13T12:58:42.884Z,9.93
2023-04-13T13:01:09.850Z,10.08
2023-04-13T13:03:39.514Z,10.29
2023-04-13T13:06:08.438Z,10.08
2023-04-13T13:08:38.612Z,9.86
2023-04-13T13:11:08.454Z,9.82
2023-04-13T13:13:35.701Z,10.35
2023-04-13T13:16:02.477Z,10.56
2023-04-13T13:18:38.886Z,10.56
2023-04-13T13:21:13.809Z,10.35
2023-04-13T13:23:40.738Z,10.56
2023-04-13T13:26:23.228Z,10.44
2023-04-13T13:28:52.399Z,10.53
2023-04-13T13:31:19.626Z,10.42
2023-04-13T13:33:46.823Z,10.37
2023-04-13T13:36:14.679Z,9.84
2023-04-13T13:38:43.092Z,10.18
2023-04-13T13:41:10.140Z,10.47
2023-04-13T13:43:38.056Z,10.74
2023-04-13T13:46:08.068Z,10.91
2023-04-13T13:48:34.910Z,10.91
2023-04-13T13:51:02.201Z,10.63
2023-04-13T13:53:28.967Z,11.24
2023-04-13T13:55:56.427Z,11.10
2023-04-13T13:58:23.197Z,10.67
2023-04-13T14:00:50.984Z,10.69
2023-04-13T14:03:17.915Z,10.97
2023-04-13T14:05:44.857Z,10.87
2023-04-13T14:08:12.008Z,10.66
2023-04-13T14:10:38.939Z,10.62
2023-04-13T14:13:06.304Z,10.50
2023-04-13T14:15:33.229Z,10.50
2023-04-13T14:18:09.186Z,10.42
2023-04-13T14:20:41.037Z,10.77
2023-04-13T14:23:09.571Z,10.91
2023-04-13T14:25:37.124Z,10.56
2023-04-13T14:28:04.127Z,10.57
2023-04-13T14:30:30.918Z,10.40
2023-04-13T14:32:57.687Z,10.62
2023-04-13T14:35:32.830Z,10.19
2023-04-13T14:38:01.146Z,10.40
2023-04-13T14:40:28.573Z,10.18
2023-04-13T14:42:55.350Z,10.11
2023-04-13T14:45:22.231Z,9.57
2023-04-13T14:47:49.402Z,10.12
2023-04-13T14:50:16.770Z,10.16
2023-04-13T14:52:44.773Z,10.34
2023-04-13T14:55:12.248Z,10.35
2023-04-13T14:57:39.602Z,10.17
2023-04-13T15:00:26.357Z,10.42
2023-04-13T15:02:53.678Z,10.61
2023-04-13T15:05:21.018Z,10.44
2023-04-13T15:07:48.856Z,10.43
2023-04-13T15:10:16.443Z,10.16
2023-04-13T15:12:43.452Z,10.52
2023-04-13T15:15:10.980Z,10.54
2023-04-13T15:17:37.884Z,10.63
2023-04-13T15:20:07.835Z,10.53
2023-04-13T15:22:36.337Z,10.96
2023-04-13T15:25:03.296Z,11.09
2023-04-13T15:27:30.214Z,10.90
2023-04-13T15:30:00.545Z,10.85
2023-04-13T15:32:28.701Z,11.30
2023-04-13T15:34:56.810Z,11.45
2023-04-13T15:37:24.367Z,12.08
2023-04-13T15:39:51.141Z,11.65
2023-04-13T15:42:19.349Z,11.09
2023-04-13T15:44:46.261Z,10.77
2023-04-13T15:47:13.061Z,10.81
2023-04-13T15:49:39.897Z,10.83
2023-04-13T15:52:06.845Z,11.00
2023-04-13T15:54:33.673Z,10.85
2023-04-13T15:57:00.566Z,10.77
2023-04-13T15:59:27.467Z,10.89
2023-04-13T16:01:54.338Z,10.84
2023-04-13T16:04:21.455Z,10.66
2023-04-13T16:07:05.001Z,10.31
2023-04-13T16:09:36.731Z,10.10
2023-04-13T16:12:08.421Z,10.14
2023-04-13T16:14:45.362Z,10.67
2023-04-13T16:17:15.065Z,10.51
2023-04-13T16:19:46.877Z,10.66
2023-04-13T16:22:14.029Z,10.31
2023-04-13T16:24:41.378Z,10.34
2023-04-13T16:27:08.823Z,10.23
2023-04-13T16:29:35.702Z,10.09
2023-04-13T16:32:02.834Z,10.25
2023-04-13T16:34:29.875Z,10.19
2023-04-13T16:36:57.613Z,10.06
2023-04-13T16:39:24.406Z,10.15
2023-04-13T16:41:51.251Z,10.03
2023-04-13T16:44:18.140Z,9.68
2023-04-13T16:46:44.985Z,9.78
2023-04-13T16:49:11.852Z,10.06
2023-04-13T16:51:38.653Z,9.96
2023-04-13T16:54:11.696Z,9.99
2023-04-13T16:56:38.545Z,9.99
2023-04-13T16:59:05.511Z,9.97
2023-04-13T17:01:32.369Z,10.07
2023-04-13T17:03:59.208Z,9.82
2023-04-13T17:06:27.323Z,9.15
2023-04-13T17:08:54.268Z,9.95
2023-04-13T17:11:21.206Z,10.04
2023-04-13T17:13:48.011Z,9.76
2023-04-13T17:16:14.771Z,9.50
2023-04-13T17:18:41.647Z,9.07
2023-04-13T17:21:08.370Z,9.47
2023-04-13T17:23:35.121Z,9.35
2023-04-13T17:26:03.702Z,9.52
2023-04-13T17:28:30.733Z,9.62
2023-04-13T17:30:57.427Z,9.35
2023-04-13T17:33:24.636Z,9.32
2023-04-13T17:35:55.246Z,9.68
2023-04-13T17:38:22.124Z,9.45
2023-04-13T17:40:50.887Z,9.48
2023-04-13T17:43:20.155Z,9.49
2023-04-13T17:45:47.009Z,9.35
2023-04-13T17:48:13.749Z,9.22
2023-04-13T17:50:40.535Z,9.46
2023-04-13T17:53:07.322Z,9.28
2023-04-13T17:55:37.242Z,9.41
2023-04-13T17:58:04.395Z,9.19
2023-04-13T18:00:31.201Z,8.93
2023-04-13T18:02:58.469Z,9.50
2023-04-13T18:05:25.920Z,9.03
2023-04-13T18:07:52.783Z,9.09
2023-04-13T18:10:19.573Z,8.86
2023-04-13T18:12:46.416Z,9.23
2023-04-13T18:15:13.314Z,9.23
2023-04-13T18:17:40.101Z,9.13
2023-04-13T18:20:07.499Z,8.96
2023-04-13T18:22:34.995Z,9.22
2023-04-13T18:25:01.755Z,9.20
2023-04-13T18:27:28.503Z,9.23
2023-04-13T18:29:55.780Z,8.60
2023-04-13T18:32:23.433Z,8.79
2023-04-13T18:34:50.524Z,8.63
2023-04-13T18:37:17.296Z,8.83
2023-04-13T18:39:45.046Z,8.72
2023-04-13T18:42:12.014Z,9.04
2023-04-13T18:44:38.767Z,8.73
2023-04-13T18:47:05.689Z,8.69
2023-04-13T18:49:32.578Z,8.66
2023-04-13T18:51:59.538Z,8.67
2023-04-13T18:54:26.305Z,8.61
2023-04-13T18:56:53.044Z,8.49
2023-04-13T18:59:19.722Z,8.81
2023-04-13T19:01:47.003Z,8.53
2023-04-13T19:04:14.049Z,8.79
2023-04-13T19:06:41.249Z,8.84
2023-04-13T19:09:08.407Z,8.73
2023-04-13T19:11:47.079Z,9.01
2023-04-13T19:14:13.848Z,8.91
2023-04-13T19:16:41.672Z,8.52
2023-04-13T19:19:09.217Z,8.45
2023-04-13T19:21:36.013Z,8.76
2023-04-13T19:24:02.829Z,8.94
2023-04-13T19:26:29.639Z,8.45
2023-04-13T19:28:56.398Z,8.41
2023-04-13T19:31:23.884Z,8.85
2023-04-13T19:33:51.588Z,8.71
2023-04-13T19:36:18.362Z,8.52
2023-04-13T19:38:45.439Z,8.64
2023-04-13T19:41:13.455Z,8.95
2023-04-13T19:43:40.193Z,8.41
2023-04-13T19:46:06.884Z,8.33
2023-04-13T19:48:33.677Z,8.87
2023-04-13T19:51:00.477Z,8.32
2023-04-13T19:53:27.181Z,8.57
2023-04-13T19:55:53.970Z,8.14
2023-04-13T19:58:20.694Z,8.10
2023-04-13T20:00:47.581Z,8.59
2023-04-13T20:03:14.456Z,8.14
2023-04-13T20:05:41.321Z,8.43
2023-04-13T20:08:08.037Z,8.15
2023-04-13T20:10:34.938Z,7.99
2023-04-13T20:13:01.679Z,7.97
2023-04-13T20:15:32.966Z,8.17
2023-04-13T20:17:59.837Z,8.34
2023-04-13T20:20:28.590Z,7.66
2023-04-13T20:22:55.489Z,7.82
2023-04-13T20:25:22.307Z,7.84
2023-04-13T20:27:48.960Z,7.97
2023-04-13T20:30:15.820Z,7.89
2023-04-13T20:32:42.591Z,7.79
2023-04-13T20:35:10.171Z,7.85
2023-04-13T20:37:37.063Z,8.01
2023-04-13T20:40:07.095Z,7.91
2023-04-13T20:42:33.979Z,7.93
2023-04-13T20:45:01.853Z,7.94
2023-04-13T20:47:31.557Z,8.00
2023-04-13T20:50:00.265Z,7.94
2023-04-13T20:52:29.934Z,8.23
2023-04-13T20:54:57.149Z,8.47
2023-04-13T20:57:23.920Z,8.11
2023-04-13T20:59:52.197Z,8.51
2023-04-13T21:02:19.120Z,8.17
2023-04-13T21:04:46.578Z,8.41
2023-04-13T21:07:15.477Z,8.39
2023-04-13T21:09:42.373Z,8.52
2023-04-13T21:12:09.041Z,8.27
2023-04-13T21:14:35.827Z,8.54
2023-04-13T21:17:02.526Z,8.36
2023-04-13T21:19:29.266Z,8.24
2023-04-13T21:21:57.597Z,8.39
2023-04-13T21:24:24.712Z,8.30
2023-04-13T21:26:51.557Z,8.49
2023-04-13T21:29:20.266Z,8.51
2023-04-13T21:31:47.865Z,8.32
2023-04-13T21:34:16.125Z,8.36
2023-04-13T21:39:14.114Z,8.15
2023-04-13T21:41:41.684Z,8.14
2023-04-13T21:44:16.191Z,8.06
2023-04-13T21:46:53.357Z,8.15
2023-04-13T21:49:20.107Z,8.39
2023-04-13T21:51:47.062Z,8.07
2023-04-13T21:54:13.835Z,8.04
2023-04-13T21:56:40.819Z,8.20
2023-04-13T21:59:07.714Z,8.16
2023-04-13T22:01:34.514Z,8.18
2023-04-13T22:04:01.552Z,7.96
2023-04-13T22:06:29.565Z,8.04
2023-04-13T22:08:56.455Z,8.00
2023-04-13T22:11:23.704Z,8.32
2023-04-13T22:13:50.495Z,8.23
2023-04-13T22:16:17.296Z,8.25
2023-04-13T22:18:44.307Z,8.23
2023-04-13T22:21:11.185Z,8.14
2023-04-13T22:23:38.815Z,8.18
2023-04-13T22:26:05.630Z,8.31
2023-04-13T22:28:33.166Z,8.25
2023-04-13T22:31:09.003Z,8.10
2023-04-13T22:33:36.506Z,8.28
2023-04-13T22:36:07.366Z,8.27
2023-04-13T22:38:34.233Z,8.35
2023-04-13T22:41:06.757Z,8.31
2023-04-13T22:43:33.508Z,8.16
2023-04-13T22:46:01.057Z,8.16
2023-04-13T22:48:29.063Z,8.59
2023-04-13T22:50:57.222Z,8.16
2023-04-13T22:53:24.260Z,8.48
2023-04-13T22:55:51.287Z,8.29
2023-04-13T22:58:18.072Z,8.47
2023-04-13T23:00:44.845Z,8.58
2023-04-13T23:03:15.426Z,8.71
2023-04-13T23:05:42.299Z,8.28
2023-04-13T23:08:09.215Z,8.30
2023-04-13T23:10:36.020Z,8.47
2023-04-13T23:13:02.855Z,8.51
2023-04-13T23:15:29.788Z,8.26
2023-04-13T23:17:56.824Z,8.71
2023-04-13T23:20:24.035Z,8.45
2023-04-13T23:22:51.139Z,8.30
2023-04-13T23:25:18.041Z,8.29
2023-04-13T23:27:45.026Z,8.24
2023-04-13T23:30:12.462Z,8.50
2023-04-13T23:32:39.353Z,8.26
2023-04-13T23:35:06.787Z,8.25
2023-04-13T23:37:33.531Z,8.31
2023-04-13T23:40:00.628Z,8.03
2023-04-13T23:42:28.171Z,8.19
2023-04-13T23:44:55.297Z,8.39
2023-04-13T23:47:22.483Z,8.16
2023-04-13T23:49:50.966Z,8.40
2023-04-13T23:52:18.046Z,8.53
2023-04-13T23:54:44.817Z,8.36
2023-04-13T23:57:12.921Z,7.98
2023-04-13T23:59:40.124Z,8.03
